sensor_id;sensor_type;location;lat;lon;timestamp;temperature;humidity
18450;DHT22;9354;50.194;7.690;2022-08-05T00:00:08;23.40;99.90
18450;DHT22;9354;50.194;7.690;2022-08-05T00:02:36;23.30;99.90
18450;DHT22;9354;50.194;7.690;2022-08-05T00:05:06;23.30;99.90
18450;DHT22;9354;50.194;7.690;2022-08-05T00:07:33;23.10;99.90
18450;DHT22;9354;50.194;7.690;2022-08-05T00:10:01;22.90;99.90
18450;DHT22;9354;50.194;7.690;2022-08-05T00:12:28;22.70;99.90
18450;DHT22;9354;50.194;7.690;2022-08-05T00:14:55;22.60;99.90
18450;DHT22;9354;50.194;7.690;2022-08-05T00:17:23;22.60;99.90
18450;DHT22;9354;50.194;7.690;2022-08-05T00:19:50;22.50;99.90
18450;DHT22;9354;50.194;7.690;2022-08-05T00:22:19;22.40;99.90
18450;DHT22;9354;50.194;7.690;2022-08-05T00:24:46;22.40;99.90
18450;DHT22;9354;50.194;7.690;2022-08-05T00:27:14;22.40;99.90
18450;DHT22;9354;50.194;7.690;2022-08-05T00:29:43;22.40;99.90
18450;DHT22;9354;50.194;7.690;2022-08-05T00:32:11;22.40;99.90
18450;DHT22;9354;50.194;7.690;2022-08-05T00:34:38;22.30;99.90
18450;DHT22;9354;50.194;7.690;2022-08-05T00:37:06;22.20;99.90
18450;DHT22;9354;50.194;7.690;2022-08-05T00:39:35;22.20;99.90
18450;DHT22;9354;50.194;7.690;2022-08-05T00:42:02;22.20;99.90
18450;DHT22;9354;50.194;7.690;2022-08-05T00:44:30;22.10;99.90
18450;DHT22;9354;50.194;7.690;2022-08-05T00:46:57;22.10;99.90
18450;DHT22;9354;50.194;7.690;2022-08-05T00:49:25;22.10;99.90
18450;DHT22;9354;50.194;7.690;2022-08-05T00:51:52;22.10;99.90
18450;DHT22;9354;50.194;7.690;2022-08-05T00:54:20;22.10;99.90
18450;DHT22;9354;50.194;7.690;2022-08-05T00:56:48;22.10;99.90
18450;DHT22;9354;50.194;7.690;2022-08-05T00:59:16;22.10;99.90
18450;DHT22;9354;50.194;7.690;2022-08-05T01:01:43;22.20;99.90
18450;DHT22;9354;50.194;7.690;2022-08-05T01:04:10;22.30;99.90
18450;DHT22;9354;50.194;7.690;2022-08-05T01:06:38;22.30;99.90
18450;DHT22;9354;50.194;7.690;2022-08-05T01:09:05;22.30;99.90
18450;DHT22;9354;50.194;7.690;2022-08-05T01:11:35;22.40;99.90
18450;DHT22;9354;50.194;7.690;2022-08-05T01:14:12;22.40;99.90
18450;DHT22;9354;50.194;7.690;2022-08-05T01:16:48;22.50;99.90
18450;DHT22;9354;50.194;7.690;2022-08-05T01:19:25;22.50;99.90
18450;DHT22;9354;50.194;7.690;2022-08-05T01:22:27;22.60;99.90
18450;DHT22;9354;50.194;7.690;2022-08-05T01:28:16;22.40;99.90
18450;DHT22;9354;50.194;7.690;2022-08-05T01:30:51;22.30;99.90
18450;DHT22;9354;50.194;7.690;2022-08-05T01:33:23;22.30;99.90
18450;DHT22;9354;50.194;7.690;2022-08-05T01:35:54;22.20;99.90
18450;DHT22;9354;50.194;7.690;2022-08-05T01:38:23;22.20;99.90
18450;DHT22;9354;50.194;7.690;2022-08-05T01:40:53;22.10;99.90
18450;DHT22;9354;50.194;7.690;2022-08-05T01:43:23;22.00;99.90
18450;DHT22;9354;50.194;7.690;2022-08-05T01:45:52;22.00;99.90
18450;DHT22;9354;50.194;7.690;2022-08-05T01:48:20;22.00;99.90
18450;DHT22;9354;50.194;7.690;2022-08-05T01:50:49;22.10;99.90
18450;DHT22;9354;50.194;7.690;2022-08-05T01:53:19;22.10;99.90
18450;DHT22;9354;50.194;7.690;2022-08-05T01:55:49;22.20;99.90
18450;DHT22;9354;50.194;7.690;2022-08-05T01:58:18;22.20;99.90
18450;DHT22;9354;50.194;7.690;2022-08-05T02:00:50;22.30;99.90
18450;DHT22;9354;50.194;7.690;2022-08-05T02:03:22;22.30;99.90
18450;DHT22;9354;50.194;7.690;2022-08-05T02:05:52;22.40;99.90
18450;DHT22;9354;50.194;7.690;2022-08-05T02:08:20;22.40;99.90
18450;DHT22;9354;50.194;7.690;2022-08-05T02:10:50;22.50;99.90
18450;DHT22;9354;50.194;7.690;2022-08-05T02:13:25;22.60;99.90
18450;DHT22;9354;50.194;7.690;2022-08-05T02:16:00;22.60;99.90
18450;DHT22;9354;50.194;7.690;2022-08-05T02:18:32;22.60;99.90
18450;DHT22;9354;50.194;7.690;2022-08-05T02:21:08;22.60;99.90
18450;DHT22;9354;50.194;7.690;2022-08-05T02:23:40;22.60;99.90
18450;DHT22;9354;50.194;7.690;2022-08-05T02:26:09;22.60;99.90
18450;DHT22;9354;50.194;7.690;2022-08-05T02:28:40;22.50;99.90
18450;DHT22;9354;50.194;7.690;2022-08-05T02:31:13;22.40;99.90
18450;DHT22;9354;50.194;7.690;2022-08-05T02:33:46;22.40;99.90
18450;DHT22;9354;50.194;7.690;2022-08-05T02:36:18;22.40;99.90
18450;DHT22;9354;50.194;7.690;2022-08-05T02:38:47;22.40;99.90
18450;DHT22;9354;50.194;7.690;2022-08-05T02:41:16;22.40;99.90
18450;DHT22;9354;50.194;7.690;2022-08-05T02:43:45;22.50;99.90
18450;DHT22;9354;50.194;7.690;2022-08-05T02:46:15;22.50;99.90
18450;DHT22;9354;50.194;7.690;2022-08-05T02:48:44;22.50;99.90
18450;DHT22;9354;50.194;7.690;2022-08-05T02:51:13;22.40;99.90
18450;DHT22;9354;50.194;7.690;2022-08-05T02:53:41;22.40;99.90
18450;DHT22;9354;50.194;7.690;2022-08-05T02:56:10;22.40;99.90
18450;DHT22;9354;50.194;7.690;2022-08-05T02:58:39;22.40;99.90
18450;DHT22;9354;50.194;7.690;2022-08-05T03:01:09;22.40;99.90
18450;DHT22;9354;50.194;7.690;2022-08-05T03:03:40;22.30;99.90
18450;DHT22;9354;50.194;7.690;2022-08-05T03:06:09;22.20;99.90
18450;DHT22;9354;50.194;7.690;2022-08-05T03:08:38;22.10;99.90
18450;DHT22;9354;50.194;7.690;2022-08-05T03:11:16;22.00;99.90
18450;DHT22;9354;50.194;7.690;2022-08-05T03:13:44;21.90;99.90
18450;DHT22;9354;50.194;7.690;2022-08-05T03:16:12;21.80;99.90
18450;DHT22;9354;50.194;7.690;2022-08-05T03:18:40;21.70;99.90
18450;DHT22;9354;50.194;7.690;2022-08-05T03:21:08;21.60;99.90
18450;DHT22;9354;50.194;7.690;2022-08-05T03:23:38;21.50;99.90
18450;DHT22;9354;50.194;7.690;2022-08-05T03:26:06;21.50;99.90
18450;DHT22;9354;50.194;7.690;2022-08-05T03:28:33;21.50;99.90
18450;DHT22;9354;50.194;7.690;2022-08-05T03:31:01;21.40;99.90
18450;DHT22;9354;50.194;7.690;2022-08-05T03:33:30;21.40;99.90
18450;DHT22;9354;50.194;7.690;2022-08-05T03:35:59;21.50;99.90
18450;DHT22;9354;50.194;7.690;2022-08-05T03:38:27;21.50;99.90
18450;DHT22;9354;50.194;7.690;2022-08-05T03:40:54;21.50;99.90
18450;DHT22;9354;50.194;7.690;2022-08-05T03:43:22;21.60;99.90
18450;DHT22;9354;50.194;7.690;2022-08-05T03:45:51;21.60;99.90
18450;DHT22;9354;50.194;7.690;2022-08-05T03:48:19;21.60;99.90
18450;DHT22;9354;50.194;7.690;2022-08-05T03:50:50;21.60;99.90
18450;DHT22;9354;50.194;7.690;2022-08-05T03:53:26;21.50;99.90
18450;DHT22;9354;50.194;7.690;2022-08-05T03:55:59;21.50;99.90
18450;DHT22;9354;50.194;7.690;2022-08-05T03:58:31;21.40;99.90
18450;DHT22;9354;50.194;7.690;2022-08-05T04:01:04;21.30;99.90
18450;DHT22;9354;50.194;7.690;2022-08-05T04:03:34;21.20;99.90
18450;DHT22;9354;50.194;7.690;2022-08-05T04:06:03;21.20;99.90
18450;DHT22;9354;50.194;7.690;2022-08-05T04:08:34;21.10;99.90
18450;DHT22;9354;50.194;7.690;2022-08-05T04:11:02;21.10;99.90
18450;DHT22;9354;50.194;7.690;2022-08-05T04:13:30;21.10;99.90
18450;DHT22;9354;50.194;7.690;2022-08-05T04:15:58;21.10;99.90
18450;DHT22;9354;50.194;7.690;2022-08-05T04:18:25;21.10;99.90
18450;DHT22;9354;50.194;7.690;2022-08-05T04:20:54;21.20;99.90
18450;DHT22;9354;50.194;7.690;2022-08-05T04:23:24;21.20;99.90
18450;DHT22;9354;50.194;7.690;2022-08-05T04:25:53;21.20;99.90
18450;DHT22;9354;50.194;7.690;2022-08-05T04:28:21;21.30;99.90
18450;DHT22;9354;50.194;7.690;2022-08-05T04:30:48;21.30;99.90
18450;DHT22;9354;50.194;7.690;2022-08-05T04:33:16;21.20;99.90
18450;DHT22;9354;50.194;7.690;2022-08-05T04:35:43;21.20;99.90
18450;DHT22;9354;50.194;7.690;2022-08-05T04:38:12;21.10;99.90
18450;DHT22;9354;50.194;7.690;2022-08-05T04:40:40;21.00;99.90
18450;DHT22;9354;50.194;7.690;2022-08-05T04:43:09;21.00;99.90
18450;DHT22;9354;50.194;7.690;2022-08-05T04:45:36;21.00;99.90
18450;DHT22;9354;50.194;7.690;2022-08-05T04:48:05;21.00;99.90
18450;DHT22;9354;50.194;7.690;2022-08-05T04:50:38;21.00;99.90
18450;DHT22;9354;50.194;7.690;2022-08-05T04:53:06;21.10;99.90
18450;DHT22;9354;50.194;7.690;2022-08-05T04:55:34;21.20;99.90
18450;DHT22;9354;50.194;7.690;2022-08-05T04:58:02;21.20;99.90
18450;DHT22;9354;50.194;7.690;2022-08-05T05:00:35;21.20;99.90
18450;DHT22;9354;50.194;7.690;2022-08-05T05:03:03;21.20;99.90
18450;DHT22;9354;50.194;7.690;2022-08-05T05:05:31;21.20;99.90
18450;DHT22;9354;50.194;7.690;2022-08-05T05:08:00;21.10;99.90
18450;DHT22;9354;50.194;7.690;2022-08-05T05:10:28;20.90;99.90
18450;DHT22;9354;50.194;7.690;2022-08-05T05:12:56;20.80;99.90
18450;DHT22;9354;50.194;7.690;2022-08-05T05:15:24;20.60;99.90
18450;DHT22;9354;50.194;7.690;2022-08-05T05:17:53;20.50;99.90
18450;DHT22;9354;50.194;7.690;2022-08-05T05:20:20;20.50;99.90
18450;DHT22;9354;50.194;7.690;2022-08-05T05:22:47;20.40;99.90
18450;DHT22;9354;50.194;7.690;2022-08-05T05:25:15;20.40;99.90
18450;DHT22;9354;50.194;7.690;2022-08-05T05:27:42;20.50;99.90
18450;DHT22;9354;50.194;7.690;2022-08-05T05:30:11;20.50;99.90
18450;DHT22;9354;50.194;7.690;2022-08-05T05:32:39;20.50;99.90
18450;DHT22;9354;50.194;7.690;2022-08-05T05:35:08;20.60;99.90
18450;DHT22;9354;50.194;7.690;2022-08-05T05:37:45;20.60;99.90
18450;DHT22;9354;50.194;7.690;2022-08-05T05:40:14;20.60;99.90
18450;DHT22;9354;50.194;7.690;2022-08-05T05:42:41;20.70;99.90
18450;DHT22;9354;50.194;7.690;2022-08-05T05:45:09;20.70;99.90
18450;DHT22;9354;50.194;7.690;2022-08-05T05:47:37;20.70;99.90
18450;DHT22;9354;50.194;7.690;2022-08-05T05:50:07;20.70;99.90
18450;DHT22;9354;50.194;7.690;2022-08-05T05:52:35;20.70;99.90
18450;DHT22;9354;50.194;7.690;2022-08-05T05:55:04;20.70;99.90
18450;DHT22;9354;50.194;7.690;2022-08-05T05:57:33;20.80;99.90
18450;DHT22;9354;50.194;7.690;2022-08-05T06:00:01;20.80;99.90
18450;DHT22;9354;50.194;7.690;2022-08-05T06:02:30;20.80;99.90
18450;DHT22;9354;50.194;7.690;2022-08-05T06:04:57;20.70;99.90
18450;DHT22;9354;50.194;7.690;2022-08-05T06:07:26;20.60;99.90
18450;DHT22;9354;50.194;7.690;2022-08-05T06:09:54;20.60;99.90
18450;DHT22;9354;50.194;7.690;2022-08-05T06:12:21;20.60;99.90
18450;DHT22;9354;50.194;7.690;2022-08-05T06:14:48;20.60;99.90
18450;DHT22;9354;50.194;7.690;2022-08-05T06:17:16;20.60;99.90
18450;DHT22;9354;50.194;7.690;2022-08-05T06:19:43;20.70;99.90
18450;DHT22;9354;50.194;7.690;2022-08-05T06:22:10;20.70;99.90
18450;DHT22;9354;50.194;7.690;2022-08-05T06:24:41;20.70;99.90
18450;DHT22;9354;50.194;7.690;2022-08-05T06:27:09;20.70;99.90
18450;DHT22;9354;50.194;7.690;2022-08-05T06:29:36;20.70;99.90
18450;DHT22;9354;50.194;7.690;2022-08-05T06:32:04;20.80;99.90
18450;DHT22;9354;50.194;7.690;2022-08-05T06:34:31;20.90;99.90
18450;DHT22;9354;50.194;7.690;2022-08-05T06:36:59;21.00;99.90
18450;DHT22;9354;50.194;7.690;2022-08-05T06:39:26;21.20;99.90
18450;DHT22;9354;50.194;7.690;2022-08-05T06:41:56;21.30;99.90
18450;DHT22;9354;50.194;7.690;2022-08-05T06:44:26;21.40;99.90
18450;DHT22;9354;50.194;7.690;2022-08-05T06:46:53;21.50;99.90
18450;DHT22;9354;50.194;7.690;2022-08-05T06:49:21;21.60;99.90
18450;DHT22;9354;50.194;7.690;2022-08-05T06:51:49;21.70;99.90
18450;DHT22;9354;50.194;7.690;2022-08-05T06:54:16;21.80;99.90
18450;DHT22;9354;50.194;7.690;2022-08-05T06:56:43;21.90;99.90
18450;DHT22;9354;50.194;7.690;2022-08-05T06:59:12;22.10;99.90
18450;DHT22;9354;50.194;7.690;2022-08-05T07:01:40;22.20;99.90
18450;DHT22;9354;50.194;7.690;2022-08-05T07:04:07;22.30;99.90
18450;DHT22;9354;50.194;7.690;2022-08-05T07:06:35;22.40;99.90
18450;DHT22;9354;50.194;7.690;2022-08-05T07:09:03;22.40;99.90
18450;DHT22;9354;50.194;7.690;2022-08-05T07:11:31;22.50;99.90
18450;DHT22;9354;50.194;7.690;2022-08-05T07:13:59;22.50;99.90
18450;DHT22;9354;50.194;7.690;2022-08-05T07:16:45;22.60;99.90
18450;DHT22;9354;50.194;7.690;2022-08-05T07:19:16;22.60;99.90
18450;DHT22;9354;50.194;7.690;2022-08-05T07:21:44;22.60;99.90
18450;DHT22;9354;50.194;7.690;2022-08-05T07:24:12;22.70;99.90
18450;DHT22;9354;50.194;7.690;2022-08-05T07:26:40;22.70;99.90
18450;DHT22;9354;50.194;7.690;2022-08-05T07:29:08;22.70;99.90
18450;DHT22;9354;50.194;7.690;2022-08-05T07:31:36;22.70;99.90
18450;DHT22;9354;50.194;7.690;2022-08-05T07:34:05;22.70;99.90
18450;DHT22;9354;50.194;7.690;2022-08-05T07:36:33;22.70;99.90
18450;DHT22;9354;50.194;7.690;2022-08-05T07:39:00;22.70;99.90
18450;DHT22;9354;50.194;7.690;2022-08-05T07:41:28;22.70;99.90
18450;DHT22;9354;50.194;7.690;2022-08-05T07:43:57;22.70;99.90
18450;DHT22;9354;50.194;7.690;2022-08-05T07:46:26;22.70;99.90
18450;DHT22;9354;50.194;7.690;2022-08-05T07:48:55;22.70;99.90
18450;DHT22;9354;50.194;7.690;2022-08-05T07:51:24;22.60;99.90
18450;DHT22;9354;50.194;7.690;2022-08-05T07:53:51;22.60;99.90
18450;DHT22;9354;50.194;7.690;2022-08-05T07:56:19;22.60;99.90
18450;DHT22;9354;50.194;7.690;2022-08-05T07:58:46;22.60;99.90
18450;DHT22;9354;50.194;7.690;2022-08-05T08:01:13;22.50;99.90
18450;DHT22;9354;50.194;7.690;2022-08-05T08:03:41;22.50;99.90
18450;DHT22;9354;50.194;7.690;2022-08-05T08:06:08;22.40;99.90
18450;DHT22;9354;50.194;7.690;2022-08-05T08:08:37;22.40;99.90
18450;DHT22;9354;50.194;7.690;2022-08-05T08:11:05;22.40;99.90
18450;DHT22;9354;50.194;7.690;2022-08-05T08:13:32;22.30;99.90
18450;DHT22;9354;50.194;7.690;2022-08-05T08:15:59;22.20;99.90
18450;DHT22;9354;50.194;7.690;2022-08-05T08:18:27;22.20;99.90
18450;DHT22;9354;50.194;7.690;2022-08-05T08:20:54;22.10;99.90
18450;DHT22;9354;50.194;7.690;2022-08-05T08:23:22;22.20;99.90
18450;DHT22;9354;50.194;7.690;2022-08-05T08:25:50;22.20;99.90
18450;DHT22;9354;50.194;7.690;2022-08-05T08:28:18;22.30;99.90
18450;DHT22;9354;50.194;7.690;2022-08-05T08:30:45;22.30;99.90
18450;DHT22;9354;50.194;7.690;2022-08-05T08:33:13;22.30;99.90
18450;DHT22;9354;50.194;7.690;2022-08-05T08:35:40;22.30;99.90
18450;DHT22;9354;50.194;7.690;2022-08-05T08:38:07;22.30;99.90
18450;DHT22;9354;50.194;7.690;2022-08-05T08:40:36;22.30;99.90
18450;DHT22;9354;50.194;7.690;2022-08-05T08:43:05;22.40;99.90
18450;DHT22;9354;50.194;7.690;2022-08-05T08:45:35;22.40;99.90
18450;DHT22;9354;50.194;7.690;2022-08-05T08:48:05;22.50;99.90
18450;DHT22;9354;50.194;7.690;2022-08-05T08:50:34;22.50;99.90
18450;DHT22;9354;50.194;7.690;2022-08-05T08:53:05;22.50;99.90
18450;DHT22;9354;50.194;7.690;2022-08-05T08:55:33;22.50;99.90
18450;DHT22;9354;50.194;7.690;2022-08-05T08:58:00;22.50;99.90
18450;DHT22;9354;50.194;7.690;2022-08-05T09:00:30;22.50;99.90
18450;DHT22;9354;50.194;7.690;2022-08-05T09:02:57;22.50;99.90
18450;DHT22;9354;50.194;7.690;2022-08-05T09:05:25;22.50;99.90
18450;DHT22;9354;50.194;7.690;2022-08-05T09:07:53;22.50;99.90
18450;DHT22;9354;50.194;7.690;2022-08-05T09:10:20;22.50;99.90
18450;DHT22;9354;50.194;7.690;2022-08-05T09:12:48;22.60;99.90
18450;DHT22;9354;50.194;7.690;2022-08-05T09:15:15;22.60;99.90
18450;DHT22;9354;50.194;7.690;2022-08-05T09:17:44;22.70;99.90
18450;DHT22;9354;50.194;7.690;2022-08-05T09:20:12;22.70;99.90
18450;DHT22;9354;50.194;7.690;2022-08-05T09:23:03;22.70;99.90
18450;DHT22;9354;50.194;7.690;2022-08-05T09:25:31;22.90;99.90
18450;DHT22;9354;50.194;7.690;2022-08-05T09:28:08;23.00;99.90
18450;DHT22;9354;50.194;7.690;2022-08-05T09:30:36;23.10;99.90
18450;DHT22;9354;50.194;7.690;2022-08-05T09:33:05;23.20;99.90
18450;DHT22;9354;50.194;7.690;2022-08-05T09:35:33;23.20;99.90
18450;DHT22;9354;50.194;7.690;2022-08-05T09:38:05;23.30;99.90
18450;DHT22;9354;50.194;7.690;2022-08-05T09:40:34;23.30;99.90
18450;DHT22;9354;50.194;7.690;2022-08-05T09:43:03;23.30;99.90
18450;DHT22;9354;50.194;7.690;2022-08-05T09:45:40;23.40;99.90
18450;DHT22;9354;50.194;7.690;2022-08-05T09:48:25;23.40;99.90
18450;DHT22;9354;50.194;7.690;2022-08-05T09:50:55;23.50;99.90
18450;DHT22;9354;50.194;7.690;2022-08-05T09:53:23;23.50;99.90
18450;DHT22;9354;50.194;7.690;2022-08-05T09:55:54;23.50;99.90
18450;DHT22;9354;50.194;7.690;2022-08-05T09:58:21;23.50;99.90
18450;DHT22;9354;50.194;7.690;2022-08-05T10:00:54;23.60;99.90
18450;DHT22;9354;50.194;7.690;2022-08-05T10:03:22;23.80;99.90
18450;DHT22;9354;50.194;7.690;2022-08-05T10:06:08;23.80;99.90
18450;DHT22;9354;50.194;7.690;2022-08-05T10:08:37;23.80;99.90
18450;DHT22;9354;50.194;7.690;2022-08-05T10:11:12;23.80;99.90
18450;DHT22;9354;50.194;7.690;2022-08-05T10:13:41;23.70;99.90
18450;DHT22;9354;50.194;7.690;2022-08-05T10:16:27;23.60;99.90
18450;DHT22;9354;50.194;7.690;2022-08-05T10:18:55;23.50;99.90
18450;DHT22;9354;50.194;7.690;2022-08-05T10:21:24;23.30;99.90
18450;DHT22;9354;50.194;7.690;2022-08-05T10:23:52;23.30;99.90
18450;DHT22;9354;50.194;7.690;2022-08-05T10:26:20;23.30;99.90
18450;DHT22;9354;50.194;7.690;2022-08-05T10:28:48;23.30;99.90
18450;DHT22;9354;50.194;7.690;2022-08-05T10:31:16;23.20;99.90
18450;DHT22;9354;50.194;7.690;2022-08-05T10:33:44;23.20;99.90
18450;DHT22;9354;50.194;7.690;2022-08-05T10:36:14;23.10;99.90
18450;DHT22;9354;50.194;7.690;2022-08-05T10:38:45;22.90;99.90
18450;DHT22;9354;50.194;7.690;2022-08-05T10:41:18;22.80;99.90
18450;DHT22;9354;50.194;7.690;2022-08-05T10:43:50;22.60;99.90
18450;DHT22;9354;50.194;7.690;2022-08-05T10:46:20;22.50;99.90
18450;DHT22;9354;50.194;7.690;2022-08-05T10:48:49;22.50;99.90
18450;DHT22;9354;50.194;7.690;2022-08-05T10:51:17;22.40;99.90
18450;DHT22;9354;50.194;7.690;2022-08-05T10:53:54;22.40;99.90
18450;DHT22;9354;50.194;7.690;2022-08-05T10:56:23;22.40;99.90
18450;DHT22;9354;50.194;7.690;2022-08-05T10:59:03;22.40;99.90
18450;DHT22;9354;50.194;7.690;2022-08-05T11:01:32;22.50;99.90
18450;DHT22;9354;50.194;7.690;2022-08-05T11:04:05;22.40;99.90
18450;DHT22;9354;50.194;7.690;2022-08-05T11:06:36;22.40;99.90
18450;DHT22;9354;50.194;7.690;2022-08-05T11:09:24;22.40;99.90
18450;DHT22;9354;50.194;7.690;2022-08-05T11:11:52;22.50;99.90
18450;DHT22;9354;50.194;7.690;2022-08-05T11:14:25;22.50;99.90
18450;DHT22;9354;50.194;7.690;2022-08-05T11:17:30;22.60;99.90
18450;DHT22;9354;50.194;7.690;2022-08-05T11:19:59;22.80;99.90
18450;DHT22;9354;50.194;7.690;2022-08-05T11:22:41;23.00;99.90
18450;DHT22;9354;50.194;7.690;2022-08-05T11:25:32;23.20;99.90
18450;DHT22;9354;50.194;7.690;2022-08-05T11:31:22;23.70;99.90
18450;DHT22;9354;50.194;7.690;2022-08-05T11:33:55;23.90;99.90
18450;DHT22;9354;50.194;7.690;2022-08-05T11:36:46;24.00;99.90
18450;DHT22;9354;50.194;7.690;2022-08-05T11:39:16;23.90;99.90
18450;DHT22;9354;50.194;7.690;2022-08-05T11:41:52;23.90;99.90
18450;DHT22;9354;50.194;7.690;2022-08-05T11:44:20;23.90;99.90
18450;DHT22;9354;50.194;7.690;2022-08-05T11:46:49;23.80;99.90
18450;DHT22;9354;50.194;7.690;2022-08-05T11:49:19;23.90;99.90
18450;DHT22;9354;50.194;7.690;2022-08-05T11:51:48;23.90;99.90
18450;DHT22;9354;50.194;7.690;2022-08-05T11:54:23;24.00;99.90
18450;DHT22;9354;50.194;7.690;2022-08-05T11:56:55;24.20;99.90
18450;DHT22;9354;50.194;7.690;2022-08-05T11:59:24;24.30;99.90
18450;DHT22;9354;50.194;7.690;2022-08-05T12:01:56;24.30;99.90
18450;DHT22;9354;50.194;7.690;2022-08-05T12:04:26;24.10;99.90
18450;DHT22;9354;50.194;7.690;2022-08-05T12:06:54;23.80;99.90
18450;DHT22;9354;50.194;7.690;2022-08-05T12:09:24;23.60;99.90
18450;DHT22;9354;50.194;7.690;2022-08-05T12:11:54;23.30;99.90
18450;DHT22;9354;50.194;7.690;2022-08-05T12:14:21;23.10;99.90
18450;DHT22;9354;50.194;7.690;2022-08-05T12:16:50;22.90;99.90
18450;DHT22;9354;50.194;7.690;2022-08-05T12:19:17;22.70;99.90
18450;DHT22;9354;50.194;7.690;2022-08-05T12:21:49;22.60;99.90
18450;DHT22;9354;50.194;7.690;2022-08-05T12:24:18;22.50;99.90
18450;DHT22;9354;50.194;7.690;2022-08-05T12:26:47;22.50;99.90
18450;DHT22;9354;50.194;7.690;2022-08-05T12:29:17;22.40;99.90
18450;DHT22;9354;50.194;7.690;2022-08-05T12:31:47;22.30;99.90
18450;DHT22;9354;50.194;7.690;2022-08-05T12:34:16;22.20;99.90
18450;DHT22;9354;50.194;7.690;2022-08-05T12:36:45;22.10;99.90
18450;DHT22;9354;50.194;7.690;2022-08-05T12:39:13;22.10;99.90
18450;DHT22;9354;50.194;7.690;2022-08-05T12:41:44;22.20;99.90
18450;DHT22;9354;50.194;7.690;2022-08-05T12:44:13;22.40;99.90
18450;DHT22;9354;50.194;7.690;2022-08-05T12:46:51;22.70;99.90
18450;DHT22;9354;50.194;7.690;2022-08-05T12:49:19;22.90;99.90
18450;DHT22;9354;50.194;7.690;2022-08-05T12:51:49;23.00;99.90
18450;DHT22;9354;50.194;7.690;2022-08-05T12:54:21;23.00;99.90
18450;DHT22;9354;50.194;7.690;2022-08-05T12:56:51;22.80;99.90
18450;DHT22;9354;50.194;7.690;2022-08-05T12:59:20;22.60;99.90
18450;DHT22;9354;50.194;7.690;2022-08-05T13:01:57;22.30;99.90
18450;DHT22;9354;50.194;7.690;2022-08-05T13:04:26;22.00;99.90
18450;DHT22;9354;50.194;7.690;2022-08-05T13:06:56;21.70;99.90
18450;DHT22;9354;50.194;7.690;2022-08-05T13:09:24;21.50;99.90
18450;DHT22;9354;50.194;7.690;2022-08-05T13:12:00;21.30;99.90
18450;DHT22;9354;50.194;7.690;2022-08-05T13:14:35;21.10;99.90
18450;DHT22;9354;50.194;7.690;2022-08-05T13:17:08;21.00;99.90
18450;DHT22;9354;50.194;7.690;2022-08-05T13:19:36;20.90;99.90
18450;DHT22;9354;50.194;7.690;2022-08-05T13:22:06;20.90;99.90
18450;DHT22;9354;50.194;7.690;2022-08-05T13:24:33;20.80;99.90
18450;DHT22;9354;50.194;7.690;2022-08-05T13:27:00;20.80;99.90
18450;DHT22;9354;50.194;7.690;2022-08-05T13:29:28;20.80;99.90
18450;DHT22;9354;50.194;7.690;2022-08-05T13:31:55;20.80;99.90
18450;DHT22;9354;50.194;7.690;2022-08-05T13:34:25;20.80;99.90
18450;DHT22;9354;50.194;7.690;2022-08-05T13:36:52;20.70;99.90
18450;DHT22;9354;50.194;7.690;2022-08-05T13:39:20;20.70;99.90
18450;DHT22;9354;50.194;7.690;2022-08-05T13:41:47;20.80;99.90
18450;DHT22;9354;50.194;7.690;2022-08-05T13:44:14;20.80;99.90
18450;DHT22;9354;50.194;7.690;2022-08-05T13:46:42;20.80;99.90
18450;DHT22;9354;50.194;7.690;2022-08-05T13:49:09;20.90;99.90
18450;DHT22;9354;50.194;7.690;2022-08-05T13:51:39;20.80;99.90
18450;DHT22;9354;50.194;7.690;2022-08-05T13:54:07;20.90;99.90
18450;DHT22;9354;50.194;7.690;2022-08-05T13:56:35;20.80;99.90
18450;DHT22;9354;50.194;7.690;2022-08-05T13:59:02;20.80;99.90
18450;DHT22;9354;50.194;7.690;2022-08-05T14:01:30;20.80;99.90
18450;DHT22;9354;50.194;7.690;2022-08-05T14:03:57;20.70;99.90
18450;DHT22;9354;50.194;7.690;2022-08-05T14:06:43;20.70;99.90
18450;DHT22;9354;50.194;7.690;2022-08-05T14:09:11;20.80;99.90
18450;DHT22;9354;50.194;7.690;2022-08-05T14:11:38;20.90;99.90
18450;DHT22;9354;50.194;7.690;2022-08-05T14:14:06;21.00;99.90
18450;DHT22;9354;50.194;7.690;2022-08-05T14:16:35;21.20;99.90
18450;DHT22;9354;50.194;7.690;2022-08-05T14:19:03;21.30;99.90
18450;DHT22;9354;50.194;7.690;2022-08-05T14:21:30;21.40;99.90
18450;DHT22;9354;50.194;7.690;2022-08-05T14:23:59;21.30;99.90
18450;DHT22;9354;50.194;7.690;2022-08-05T14:26:26;21.40;99.90
18450;DHT22;9354;50.194;7.690;2022-08-05T14:28:54;21.50;99.90
18450;DHT22;9354;50.194;7.690;2022-08-05T14:31:21;21.50;99.90
18450;DHT22;9354;50.194;7.690;2022-08-05T14:33:49;21.60;99.90
18450;DHT22;9354;50.194;7.690;2022-08-05T14:36:16;21.60;99.90
18450;DHT22;9354;50.194;7.690;2022-08-05T14:38:43;21.60;99.90
18450;DHT22;9354;50.194;7.690;2022-08-05T14:41:12;21.70;99.90
18450;DHT22;9354;50.194;7.690;2022-08-05T14:43:39;21.90;99.90
18450;DHT22;9354;50.194;7.690;2022-08-05T14:46:07;21.90;99.90
18450;DHT22;9354;50.194;7.690;2022-08-05T14:48:34;22.00;99.90
18450;DHT22;9354;50.194;7.690;2022-08-05T14:51:02;22.00;99.90
18450;DHT22;9354;50.194;7.690;2022-08-05T14:53:29;22.10;99.90
18450;DHT22;9354;50.194;7.690;2022-08-05T14:55:57;22.10;99.90
18450;DHT22;9354;50.194;7.690;2022-08-05T14:58:25;22.30;99.90
18450;DHT22;9354;50.194;7.690;2022-08-05T15:00:53;22.40;99.90
18450;DHT22;9354;50.194;7.690;2022-08-05T15:03:20;22.40;99.90
18450;DHT22;9354;50.194;7.690;2022-08-05T15:05:48;22.50;99.90
18450;DHT22;9354;50.194;7.690;2022-08-05T15:08:15;22.50;99.90
18450;DHT22;9354;50.194;7.690;2022-08-05T15:10:42;22.70;99.90
18450;DHT22;9354;50.194;7.690;2022-08-05T15:13:10;22.90;99.90
18450;DHT22;9354;50.194;7.690;2022-08-05T15:15:38;23.20;99.90
18450;DHT22;9354;50.194;7.690;2022-08-05T15:18:06;23.50;99.90
18450;DHT22;9354;50.194;7.690;2022-08-05T15:20:33;23.80;99.90
18450;DHT22;9354;50.194;7.690;2022-08-05T15:23:04;24.00;99.90
18450;DHT22;9354;50.194;7.690;2022-08-05T15:25:31;24.30;99.90
18450;DHT22;9354;50.194;7.690;2022-08-05T15:27:59;24.50;99.90
18450;DHT22;9354;50.194;7.690;2022-08-05T15:30:27;24.60;99.90
18450;DHT22;9354;50.194;7.690;2022-08-05T15:32:58;24.50;99.90
18450;DHT22;9354;50.194;7.690;2022-08-05T15:35:26;24.50;99.90
18450;DHT22;9354;50.194;7.690;2022-08-05T15:37:53;24.40;99.90
18450;DHT22;9354;50.194;7.690;2022-08-05T15:40:21;24.30;99.90
18450;DHT22;9354;50.194;7.690;2022-08-05T15:42:49;24.20;99.90
18450;DHT22;9354;50.194;7.690;2022-08-05T15:45:16;24.20;99.90
18450;DHT22;9354;50.194;7.690;2022-08-05T15:47:44;24.20;99.90
18450;DHT22;9354;50.194;7.690;2022-08-05T15:50:14;24.30;99.90
18450;DHT22;9354;50.194;7.690;2022-08-05T15:52:41;24.40;99.90
18450;DHT22;9354;50.194;7.690;2022-08-05T15:55:11;24.50;99.90
18450;DHT22;9354;50.194;7.690;2022-08-05T15:57:39;24.50;99.90
18450;DHT22;9354;50.194;7.690;2022-08-05T16:00:08;24.60;99.90
18450;DHT22;9354;50.194;7.690;2022-08-05T16:02:36;24.60;99.90
18450;DHT22;9354;50.194;7.690;2022-08-05T16:05:04;24.50;99.90